Crew | Aerofun Virtual



 METAR AND TAF INFORMATION
METAR FOR EETU
ADDS - METARS form results

(1937 UTC 21 July 2019)
Data provider http://aviationweather.gov/metar/data/
 
METAR text: EETU 211850Z AUTO 12004KT 9999 NCD 20/13 Q1016
Conditions at: EETU (TARTU , EE) observed 1850 UTC 21 July 2019
Temperature: 20.0°C (68°F)
Dewpoint: 13.0°C (55°F) [RH = 64%]
Pressure (altimeter): 30.00 inches Hg (1016.0 mb)
Winds: from the ESE (120 degrees) at 5 MPH (4 knots; 2.1 m/s)
Visibility: 6 or more miles (10+ km)
Ceiling: at least 12,000 feet AGL
Clouds: sky clear below 12,000 feet AGL
Weather: no significant weather observed at this time

 AIRPORT MAP

 RUNWAY INFORMATION
Runway 08 Runway length 5902 ft Runway width 101 ft
Runway elevation 210 ft Runway displaced threshold 0 ft Runway heading 88
Runway 26 Runway length 5902 ft Runway width 101 ft
Runway elevation 192 ft Runway displaced threshold 0 ft Runway heading 268

 AIRPORT FREQUENCIES
Type TWR Name TWR Frequency 133.9 MHZ

 AIRPORT NEAR NAVIGATION AIDS
Type NDB Name Tartu Frequency 397 KHZ